Sibirskiy-2116 — UBXE3 — position and weather

sailwx.info

Track history (hours):
 
Tides and Currents Weather Stations Pressure Air Temp Water Temp Dewpoint Dewpoint Depression Visibility Wind Speed Wind Dir Waves Ship Positions

Sibirskiy-2116

Last reported at 2015-May-24 02:29 UTC. Time now 2015-Jul-04 08:23 UTC.
Position N 44°49' E 036°30'.
Warning: this ship's position is 41 days out of date.

Length 130 m; draft 3 m.

Type: Cargo ship. MMSI: 273347320.

Date/timePositionNaut miles runAvg speedWind from/ knotsBaromVisibWave heightAir tempDewpointWater temp
2015-May-24 02:29N 44°49' E 036°30'30 7.3
2015-May-23 22:22N 44°33' E 035°54'7 7.5
2015-May-23 21:24N 44°30' E 035°45'7 7.3
2015-May-23 20:30N 44°27' E 035°37'7 7.3
2015-May-23 19:31N 44°25' E 035°28'14 7.0
2015-May-23 17:33N 44°20' E 035°09'7 7.2
2015-May-23 16:33N 44°18' E 034°60'7 7.2
2015-May-23 15:34N 44°15' E 034°51'7 7.3
2015-May-23 14:33N 44°13' E 034°41'8 7.4
2015-May-23 13:29N 44°10' E 034°31'7 7.5
2015-May-23 12:33N 44°08' E 034°22'7 7.2
2015-May-23 11:32N 44°05' E 034°12'21 6.7
2015-May-23 08:26N 43°57' E 033°46'258 6.8
2015-May-21 18:10N 41°16' E 029°11'  
Track history (hours):
 
Tides and Currents Weather Stations Pressure Air Temp Water Temp Dewpoint Dewpoint Depression Visibility Wind Speed Wind Dir Waves Ship Positions

Sibirskiy-2116

Last reported at 2015-May-24 02:29 UTC. Time now 2015-Jul-04 08:23 UTC.
Position N 44°49' E 036°30'.
Warning: this ship's position is 41 days out of date.

Length 130 m; draft 3 m.

Type: Cargo ship. MMSI: 273347320.

Date/timePositionNaut miles runAvg speedWind from/ knotsBaromVisibWave heightAir tempDewpointWater temp
2015-May-24 02:29N 44°49' E 036°30'30 7.3
2015-May-23 22:22N 44°33' E 035°54'7 7.5
2015-May-23 21:24N 44°30' E 035°45'7 7.3
2015-May-23 20:30N 44°27' E 035°37'7 7.3
2015-May-23 19:31N 44°25' E 035°28'14 7.0
2015-May-23 17:33N 44°20' E 035°09'7 7.2
2015-May-23 16:33N 44°18' E 034°60'7 7.2
2015-May-23 15:34N 44°15' E 034°51'7 7.3
2015-May-23 14:33N 44°13' E 034°41'8 7.4
2015-May-23 13:29N 44°10' E 034°31'7 7.5
2015-May-23 12:33N 44°08' E 034°22'7 7.2
2015-May-23 11:32N 44°05' E 034°12'21 6.7
2015-May-23 08:26N 43°57' E 033°46'258 6.8
2015-May-21 18:10N 41°16' E 029°11'  

Dump ship's entire track history